createdAt,value
2022-11-02T00:01:26.435Z,17.98
2022-11-02T00:03:53.671Z,15.70
2022-11-02T00:06:20.990Z,14.35
2022-11-02T00:08:48.103Z,13.38
2022-11-02T00:11:15.203Z,13.02
2022-11-02T00:13:42.451Z,12.50
2022-11-02T00:16:13.999Z,12.70
2022-11-02T00:18:44.310Z,13.27
2022-11-02T00:21:12.381Z,15.30
2022-11-02T00:23:41.242Z,17.42
2022-11-02T00:26:09.071Z,16.17
2022-11-02T00:28:36.247Z,16.92
2022-11-02T00:31:03.932Z,14.95
2022-11-02T00:33:31.143Z,15.82
2022-11-02T00:35:58.438Z,18.63
2022-11-02T00:38:25.583Z,19.02
2022-11-02T00:40:52.712Z,17.88
2022-11-02T00:43:19.867Z,16.60
2022-11-02T00:45:47.236Z,17.63
2022-11-02T00:48:14.480Z,16.15
2022-11-02T00:50:41.705Z,17.05
2022-11-02T00:53:09.440Z,13.48
2022-11-02T00:55:40.316Z,14.13
2022-11-02T00:58:07.814Z,13.65
2022-11-02T01:00:35.175Z,14.50
2022-11-02T01:03:03.453Z,15.38
2022-11-02T01:05:30.811Z,15.48
2022-11-02T01:07:58.035Z,15.55
2022-11-02T01:10:26.822Z,22.85
2022-11-02T01:12:54.241Z,19.25
2022-11-02T01:15:21.696Z,18.60
2022-11-02T01:17:48.940Z,16.58
2022-11-02T01:20:16.207Z,17.77
2022-11-02T01:22:43.403Z,17.20
2022-11-02T01:25:12.441Z,14.82
2022-11-02T01:27:39.668Z,14.68
2022-11-02T01:30:07.569Z,16.23
2022-11-02T01:32:34.691Z,16.83
2022-11-02T01:35:02.251Z,23.33
2022-11-02T01:37:29.398Z,22.17
2022-11-02T01:39:56.607Z,27.13
2022-11-02T01:42:27.379Z,27.23
2022-11-02T01:44:55.353Z,21.02
2022-11-02T01:47:37.276Z,20.27
2022-11-02T01:50:13.369Z,19.00
2022-11-02T01:52:41.682Z,18.77
2022-11-02T01:55:25.250Z,17.75
2022-11-02T01:57:58.537Z,18.38
2022-11-02T02:00:25.998Z,16.10
2022-11-02T02:03:16.083Z,15.35
2022-11-02T02:05:55.643Z,15.23
2022-11-02T02:08:25.903Z,15.90
2022-11-02T02:10:57.519Z,14.80
2022-11-02T02:13:27.953Z,15.55
2022-11-02T02:16:20.978Z,14.90
2022-11-02T02:18:59.156Z,16.15
2022-11-02T02:22:20.026Z,17.55
2022-11-02T02:28:23.473Z,15.05
2022-11-02T02:30:59.834Z,14.98
2022-11-02T02:33:37.283Z,16.52
2022-11-02T02:36:35.880Z,18.23
2022-11-02T02:39:08.330Z,16.60
2022-11-02T02:41:42.192Z,17.23
2022-11-02T02:44:19.294Z,16.13
2022-11-02T02:46:49.054Z,15.13
2022-11-02T02:49:31.252Z,14.88
2022-11-02T02:51:59.488Z,14.70
2022-11-02T02:54:39.888Z,14.82
2022-11-02T02:57:14.564Z,15.90
2022-11-02T02:59:44.801Z,14.32
2022-11-02T03:02:25.276Z,15.68
2022-11-02T03:04:53.298Z,14.23
2022-11-02T03:07:34.024Z,13.13
2022-11-02T03:10:25.560Z,11.15
2022-11-02T03:13:21.174Z,13.40
2022-11-02T03:15:59.258Z,15.27
2022-11-02T03:18:47.712Z,15.10
2022-11-02T03:21:35.513Z,17.95
2022-11-02T03:24:14.661Z,19.23
2022-11-02T03:29:26.183Z,20.33
2022-11-02T03:32:15.500Z,18.55
2022-11-02T03:37:54.643Z,13.77
2022-11-02T03:40:49.654Z,12.95
2022-11-02T03:43:19.738Z,15.85
2022-11-02T03:45:57.328Z,14.75
2022-11-02T03:48:31.658Z,18.35
2022-11-02T03:51:06.355Z,17.80
2022-11-02T03:53:42.503Z,18.35
2022-11-02T03:56:28.444Z,19.85
2022-11-02T03:58:56.935Z,15.20
2022-11-02T04:01:27.016Z,16.13
2022-11-02T04:03:55.943Z,13.88
2022-11-02T04:06:24.926Z,16.30
2022-11-02T04:08:53.062Z,15.52
2022-11-02T04:11:40.487Z,17.95
2022-11-02T04:14:30.534Z,18.40
2022-11-02T04:17:17.889Z,17.95
2022-11-02T04:19:50.034Z,14.73
2022-11-02T04:22:38.004Z,15.32
2022-11-02T04:25:15.146Z,14.52
2022-11-02T04:27:53.493Z,15.95
2022-11-02T04:30:25.575Z,11.65
2022-11-02T04:35:47.974Z,11.25
2022-11-02T04:38:34.430Z,13.80
2022-11-02T04:41:20.986Z,13.63
2022-11-02T04:43:51.044Z,16.45
2022-11-02T04:46:21.462Z,15.15
2022-11-02T04:48:50.541Z,16.40
2022-11-02T04:51:20.105Z,14.27
2022-11-02T04:56:17.722Z,15.85
2022-11-02T04:58:53.300Z,14.05
2022-11-02T05:01:22.116Z,14.25
2022-11-02T05:03:53.155Z,14.80
2022-11-02T05:06:22.811Z,16.48
2022-11-02T05:08:50.747Z,14.38
2022-11-02T05:11:18.763Z,16.10
2022-11-02T05:13:48.075Z,15.70
2022-11-02T05:16:17.511Z,15.13
2022-11-02T05:18:45.748Z,14.52
2022-11-02T05:21:14.747Z,15.45
2022-11-02T05:23:42.086Z,15.52
2022-11-02T05:26:11.812Z,15.02
2022-11-02T05:28:43.126Z,13.57
2022-11-02T05:31:10.495Z,16.15
2022-11-02T05:33:38.087Z,15.50
2022-11-02T05:36:09.732Z,13.40
2022-11-02T05:41:11.987Z,16.88
2022-11-02T05:43:40.451Z,14.10
2022-11-02T05:46:10.358Z,16.98
2022-11-02T05:48:37.543Z,14.63
2022-11-02T05:51:04.905Z,15.10
2022-11-02T05:53:33.516Z,16.55
2022-11-02T05:56:01.887Z,14.27
2022-11-02T05:58:30.076Z,12.70
2022-11-02T06:01:02.247Z,14.35
2022-11-02T06:03:30.929Z,10.70
2022-11-02T06:06:04.979Z,11.30
2022-11-02T06:08:33.983Z,11.35
2022-11-02T06:11:12.929Z,10.75
2022-11-02T06:13:41.192Z,11.52
2022-11-02T06:16:11.594Z,12.00
2022-11-02T06:18:39.137Z,12.25
2022-11-02T06:21:06.779Z,12.43
2022-11-02T06:23:34.798Z,13.85
2022-11-02T06:26:02.888Z,12.80
2022-11-02T06:28:30.997Z,14.18
2022-11-02T06:30:58.674Z,14.82
2022-11-02T06:33:26.120Z,14.77
2022-11-02T06:35:54.556Z,15.23
2022-11-02T06:38:22.348Z,15.17
2022-11-02T06:40:58.369Z,14.48
2022-11-02T06:43:26.335Z,14.38
2022-11-02T06:45:57.696Z,12.85
2022-11-02T06:48:31.506Z,13.68
2022-11-02T06:51:04.317Z,15.18
2022-11-02T06:53:31.749Z,16.98
2022-11-02T06:55:59.934Z,18.05
2022-11-02T06:58:27.744Z,16.90
2022-11-02T07:01:01.270Z,14.30
2022-11-02T07:03:30.440Z,14.73
2022-11-02T07:05:58.047Z,14.65
2022-11-02T07:08:26.783Z,19.50
2022-11-02T07:10:54.332Z,13.98
2022-11-02T07:13:21.635Z,10.60
2022-11-02T07:15:52.947Z,12.07
2022-11-02T07:18:21.467Z,12.50
2022-11-02T07:20:49.052Z,13.90
2022-11-02T07:23:16.136Z,12.52
2022-11-02T07:25:43.269Z,13.27
2022-11-02T07:28:10.548Z,12.43
2022-11-02T07:30:37.680Z,11.95
2022-11-02T07:33:05.244Z,10.95
2022-11-02T07:35:33.748Z,14.02
2022-11-02T07:38:07.018Z,14.23
2022-11-02T07:40:35.793Z,15.23
2022-11-02T07:43:03.888Z,16.10
2022-11-02T07:45:57.860Z,12.88
2022-11-02T07:48:25.072Z,12.68
2022-11-02T07:50:52.252Z,14.02
2022-11-02T07:53:19.379Z,15.55
2022-11-02T07:55:46.584Z,14.05
2022-11-02T07:58:13.741Z,14.20
2022-11-02T08:00:41.643Z,12.77
2022-11-02T08:03:11.412Z,14.45
2022-11-02T08:05:41.931Z,13.63
2022-11-02T08:08:22.603Z,13.50
2022-11-02T08:10:51.998Z,13.70
2022-11-02T08:13:25.463Z,13.90
2022-11-02T08:15:53.890Z,12.20
2022-11-02T08:18:27.149Z,11.07
2022-11-02T08:20:58.886Z,14.05
2022-11-02T08:23:26.500Z,13.25
2022-11-02T08:25:54.752Z,11.90
2022-11-02T08:28:31.636Z,14.53
2022-11-02T08:30:59.159Z,14.93
2022-11-02T08:33:26.891Z,15.95
2022-11-02T08:35:54.174Z,14.45
2022-11-02T08:38:24.335Z,17.17
2022-11-02T08:40:51.591Z,14.95
2022-11-02T08:43:18.706Z,14.20
2022-11-02T08:46:14.438Z,14.75
2022-11-02T08:48:33.129Z,11.45
2022-11-02T08:51:00.415Z,17.50
2022-11-02T08:53:27.802Z,17.13
2022-11-02T08:55:58.529Z,18.08
2022-11-02T08:58:25.836Z,17.15
2022-11-02T09:00:53.877Z,14.05
2022-11-02T09:03:26.925Z,11.88
2022-11-02T09:06:00.551Z,13.85
2022-11-02T09:08:29.408Z,13.43
2022-11-02T09:11:02.445Z,13.43
2022-11-02T09:13:30.132Z,10.90
2022-11-02T09:15:59.180Z,8.50
2022-11-02T09:20:53.674Z,9.52
2022-11-02T09:23:21.640Z,9.93
2022-11-02T09:25:49.722Z,10.63
2022-11-02T09:28:17.266Z,10.83
2022-11-02T09:30:44.692Z,12.15
2022-11-02T09:33:12.875Z,11.88
2022-11-02T09:35:48.471Z,11.50
2022-11-02T09:38:20.288Z,9.23
2022-11-02T09:41:11.649Z,7.97
2022-11-02T09:44:00.922Z,5.85
2022-11-02T09:46:40.332Z,4.78
2022-11-02T09:49:21.323Z,4.70
2022-11-02T09:51:54.554Z,4.80
2022-11-02T09:54:48.565Z,6.43
2022-11-02T09:57:26.588Z,5.50
2022-11-02T09:59:53.813Z,4.10
2022-11-02T10:02:39.187Z,4.45
2022-11-02T10:05:33.078Z,4.90
2022-11-02T10:08:18.634Z,5.43
2022-11-02T10:11:12.533Z,4.05
2022-11-02T10:13:56.850Z,4.75
2022-11-02T10:17:05.417Z,5.07
2022-11-02T10:19:37.662Z,5.32
2022-11-02T10:22:05.147Z,4.95
2022-11-02T10:24:43.221Z,4.95
2022-11-02T10:27:35.483Z,5.38
2022-11-02T10:30:21.173Z,4.65
2022-11-02T10:32:52.367Z,3.10
2022-11-02T10:36:19.194Z,4.57
2022-11-02T10:39:07.628Z,5.75
2022-11-02T10:42:16.955Z,3.88
2022-11-02T10:45:16.247Z,7.60
2022-11-02T10:48:08.302Z,5.22
2022-11-02T10:50:41.318Z,6.10
2022-11-02T10:53:40.179Z,3.80
2022-11-02T10:56:34.168Z,4.57
2022-11-02T10:59:23.053Z,5.57
2022-11-02T11:01:56.212Z,5.72
2022-11-02T11:04:29.715Z,5.43
2022-11-02T11:07:03.868Z,5.88
2022-11-02T11:09:53.459Z,8.00
2022-11-02T11:12:37.362Z,6.00
2022-11-02T11:20:42.522Z,5.65
2022-11-02T11:23:17.336Z,5.43
2022-11-02T11:26:05.795Z,5.70
2022-11-02T11:28:56.637Z,5.38
2022-11-02T11:31:25.268Z,5.15
2022-11-02T11:33:57.974Z,5.07
2022-11-02T11:39:20.797Z,5.13
2022-11-02T16:00:15.164Z,7.78
2022-11-02T16:02:45.047Z,11.63
2022-11-02T16:05:24.876Z,7.05
2022-11-02T16:08:20.790Z,5.47
2022-11-02T16:10:42.800Z,4.65
2022-11-02T16:13:09.776Z,4.35
2022-11-02T16:15:38.257Z,4.50
2022-11-02T16:18:05.501Z,3.15
2022-11-02T16:20:39.315Z,5.07
2022-11-02T16:23:12.557Z,6.60
2022-11-02T16:25:47.279Z,5.07
2022-11-02T16:28:36.960Z,4.88
2022-11-02T16:31:30.034Z,4.50
2022-11-02T16:34:04.901Z,4.38
2022-11-02T16:36:36.209Z,4.50
2022-11-02T16:39:36.929Z,5.15
2022-11-02T16:42:14.132Z,5.47
2022-11-02T16:44:42.746Z,11.18
2022-11-02T16:47:17.326Z,9.07
2022-11-02T16:49:50.375Z,8.00
2022-11-02T16:52:36.309Z,7.72
2022-11-02T16:55:46.950Z,7.30
2022-11-02T16:58:23.623Z,6.57
2022-11-02T17:01:03.323Z,5.82
2022-11-02T17:03:33.946Z,5.88
2022-11-02T17:06:04.874Z,6.85
2022-11-02T17:08:35.450Z,6.43
2022-11-02T17:11:05.969Z,8.25
2022-11-02T17:13:37.861Z,7.88
2022-11-02T17:16:09.616Z,9.43
2022-11-02T17:18:37.804Z,8.02
2022-11-02T17:21:27.520Z,10.40
2022-11-02T17:23:57.398Z,7.97
2022-11-02T17:26:37.011Z,7.95
2022-11-02T17:29:19.132Z,6.10
2022-11-02T17:31:52.226Z,6.00
2022-11-02T17:34:20.154Z,4.78
2022-11-02T17:36:49.174Z,6.68
2022-11-02T17:39:18.875Z,6.55
2022-11-02T17:42:36.809Z,5.32
2022-11-02T17:45:30.405Z,5.25
2022-11-02T17:47:59.694Z,5.30
2022-11-02T17:50:29.575Z,7.03
2022-11-02T17:53:02.203Z,6.88
2022-11-02T17:55:32.686Z,6.20
2022-11-02T17:58:00.432Z,5.57
2022-11-02T18:00:28.573Z,5.57
2022-11-02T18:02:58.336Z,8.90
2022-11-02T18:05:36.955Z,8.75
2022-11-02T18:08:06.230Z,9.25
2022-11-02T18:10:39.548Z,7.80
2022-11-02T18:13:10.754Z,8.43
2022-11-02T18:15:37.896Z,12.02
2022-11-02T18:18:05.884Z,19.75
2022-11-02T18:20:38.643Z,15.63
2022-11-02T18:23:15.184Z,13.20
2022-11-02T18:25:42.682Z,14.25
2022-11-02T18:28:09.899Z,13.10
2022-11-02T18:30:41.461Z,13.68
2022-11-02T18:33:13.164Z,9.77
2022-11-02T18:35:42.058Z,11.98
2022-11-02T18:38:09.683Z,12.10
2022-11-02T18:40:36.951Z,11.35
2022-11-02T18:43:04.661Z,11.80
2022-11-02T18:45:32.217Z,14.93
2022-11-02T18:47:59.626Z,16.00
2022-11-02T18:50:26.849Z,13.85
2022-11-02T18:52:54.002Z,12.13
2022-11-02T18:55:21.152Z,11.20
2022-11-02T18:57:50.213Z,12.38
2022-11-02T19:02:44.831Z,17.02
2022-11-02T19:05:30.877Z,15.25
2022-11-02T19:08:19.751Z,14.35
2022-11-02T19:10:47.819Z,14.90
2022-11-02T19:13:15.499Z,15.05
2022-11-02T19:15:43.047Z,14.88
2022-11-02T19:18:10.672Z,12.80
2022-11-02T19:20:37.847Z,12.25
2022-11-02T19:23:05.076Z,12.55
2022-11-02T19:25:32.459Z,13.07
2022-11-02T19:27:59.910Z,12.07
2022-11-02T19:30:27.188Z,12.25
2022-11-02T19:32:54.372Z,13.48
2022-11-02T19:35:21.719Z,11.27
2022-11-02T19:37:48.897Z,10.55
2022-11-02T19:40:16.083Z,11.70
2022-11-02T19:42:43.196Z,10.20
2022-11-02T19:45:15.982Z,12.73
2022-11-02T19:47:43.768Z,10.73
2022-11-02T19:50:11.601Z,9.88
2022-11-02T19:52:38.776Z,11.60
2022-11-02T19:55:06.674Z,12.88
2022-11-02T19:57:34.210Z,9.55
2022-11-02T20:00:01.490Z,10.10
2022-11-02T20:02:28.906Z,9.65
2022-11-02T20:04:56.050Z,11.57
2022-11-02T20:07:23.232Z,8.38
2022-11-02T20:09:51.624Z,8.35
2022-11-02T20:12:20.560Z,8.75
2022-11-02T20:14:47.699Z,7.63
2022-11-02T20:17:31.649Z,11.20
2022-11-02T20:20:02.339Z,10.30
2022-11-02T20:22:29.508Z,11.98
2022-11-02T20:24:56.845Z,9.50
2022-11-02T20:27:24.121Z,9.20
2022-11-02T20:29:51.331Z,7.82
2022-11-02T20:32:19.759Z,7.88
2022-11-02T20:34:46.945Z,10.25
2022-11-02T20:37:14.103Z,9.85
2022-11-02T20:39:41.317Z,9.05
2022-11-02T20:42:10.477Z,8.25
2022-11-02T20:47:04.735Z,11.13
2022-11-02T20:52:21.263Z,10.82
2022-11-02T20:54:48.671Z,12.43
2022-11-02T20:57:15.868Z,12.25
2022-11-02T20:59:43.011Z,11.40
2022-11-02T21:02:11.845Z,12.07
2022-11-02T21:04:39.166Z,10.27
2022-11-02T21:07:07.369Z,10.23
2022-11-02T21:09:35.072Z,10.17
2022-11-02T21:12:21.180Z,10.30
2022-11-02T21:14:48.980Z,10.10
2022-11-02T21:17:16.222Z,11.80
2022-11-02T21:19:43.334Z,11.07
2022-11-02T21:22:11.225Z,12.38
2022-11-02T21:24:38.344Z,11.65
2022-11-02T21:27:06.219Z,11.90
2022-11-02T21:29:33.531Z,12.80
2022-11-02T21:32:00.745Z,12.20
2022-11-02T21:34:27.850Z,9.80
2022-11-02T21:36:55.081Z,10.13
2022-11-02T21:39:22.192Z,10.80
2022-11-02T21:41:49.293Z,11.00
2022-11-02T21:44:16.439Z,11.95
2022-11-02T21:46:43.512Z,12.77
2022-11-02T21:49:10.659Z,13.38
2022-11-02T21:51:38.043Z,13.38
2022-11-02T21:54:05.506Z,12.25
2022-11-02T21:56:35.185Z,11.13
2022-11-02T21:59:02.530Z,13.75
2022-11-02T22:01:44.025Z,12.93
2022-11-02T22:04:20.879Z,14.55
2022-11-02T22:06:49.210Z,14.35
2022-11-02T22:09:16.611Z,13.93
2022-11-02T22:11:44.367Z,14.80
2022-11-02T22:14:12.777Z,15.93
2022-11-02T22:16:42.825Z,18.90
2022-11-02T22:19:14.731Z,24.60
2022-11-02T22:21:44.163Z,36.58
2022-11-02T22:24:12.154Z,36.50
2022-11-02T22:26:40.190Z,22.67
2022-11-02T22:29:07.827Z,19.05
2022-11-02T22:31:38.443Z,17.92
2022-11-02T22:34:07.780Z,16.08
2022-11-02T22:36:36.630Z,16.90
2022-11-02T22:39:07.638Z,14.30
2022-11-02T22:41:38.315Z,13.75
2022-11-02T22:44:11.102Z,12.27
2022-11-02T22:46:41.497Z,11.93
2022-11-02T22:49:11.272Z,12.55
2022-11-02T22:51:44.528Z,11.52
2022-11-02T22:54:15.007Z,10.38
2022-11-02T22:56:44.209Z,12.15
2022-11-02T23:01:39.637Z,9.23
2022-11-02T23:04:07.364Z,9.98
2022-11-02T23:06:34.774Z,10.57
2022-11-02T23:09:02.201Z,11.57
2022-11-02T23:11:35.493Z,11.25
2022-11-02T23:14:12.500Z,10.98
2022-11-02T23:16:42.115Z,10.82
2022-11-02T23:19:32.383Z,10.85
2022-11-02T23:22:27.619Z,10.88
2022-11-02T23:25:16.552Z,11.00
2022-11-02T23:28:12.252Z,9.30
2022-11-02T23:30:58.565Z,10.60
2022-11-02T23:33:31.439Z,11.68
2022-11-02T23:36:13.435Z,13.43
2022-11-02T23:39:04.569Z,10.60
2022-11-02T23:41:34.669Z,10.32
2022-11-02T23:44:10.839Z,10.85
2022-11-02T23:46:39.650Z,12.27
2022-11-02T23:49:06.842Z,12.85
2022-11-02T23:51:52.666Z,12.35
2022-11-02T23:54:38.645Z,12.65
2022-11-02T23:57:05.997Z,14.20
2022-11-02T23:59:33.115Z,11.93
